Time;durP1;ratioP1;P1;durP2;ratioP2;P2;SDS_P1;SDS_P2;PMS_P1;PMS_P2;Temp;Humidity;BMP_temperature;BMP_pressure;BME280_temperature;BME280_humidity;BME280_pressure;Samples;Min_cycle;Max_cycle;Signal;HPM_P1;HPM_P2
2023/09/18 00:00:13;;;;;;;3.03;1.87;;;;;;;18.91;77.15;93992.97;526376;28;816;-41
2023/09/18 00:00:30;;;;;;;2.03;1.80;;;;;;;18.92;77.10;93993.72;526339;28;879;-41
2023/09/18 00:00:52;;;;;;;2.13;1.92;;;;;;;18.92;77.15;93988.13;526312;28;956;-41
2023/09/18 00:01:08;;;;;;;2.42;2.05;;;;;;;18.92;77.04;93994.47;526149;28;933;-41
2023/09/18 00:01:23;;;;;;;2.15;1.95;;;;;;;18.93;77.22;93995.94;526142;28;1011;-41
2023/09/18 00:01:41;;;;;;;2.20;2.00;;;;;;;18.95;77.32;93994.63;526095;28;1036;-41
2023/09/18 00:01:56;;;;;;;3.50;2.40;;;;;;;18.95;77.27;93998.13;526127;28;890;-41
2023/09/18 00:02:12;;;;;;;3.50;2.33;;;;;;;18.95;77.20;93997.41;526097;28;904;-41
2023/09/18 00:02:29;;;;;;;2.33;2.03;;;;;;;18.95;77.22;93991.81;526052;28;832;-41
2023/09/18 00:02:44;;;;;;;3.25;2.05;;;;;;;18.96;77.39;93990.47;526139;28;896;-41
2023/09/18 00:03:02;;;;;;;2.70;2.10;;;;;;;18.97;77.33;93989.91;526311;28;880;-41
2023/09/18 00:03:20;;;;;;;3.28;2.15;;;;;;;18.98;77.45;93999.00;526325;28;849;-41
2023/09/18 00:03:35;;;;;;;2.78;1.95;;;;;;;18.98;77.41;93994.16;526245;28;873;-41
2023/09/18 00:03:51;;;;;;;2.20;2.00;;;;;;;18.99;77.19;94000.50;526340;28;990;-41
2023/09/18 00:04:06;;;;;;;2.23;2.03;;;;;;;18.98;77.15;93994.16;526328;28;848;-41
2023/09/18 00:04:21;;;;;;;4.10;2.05;;;;;;;18.99;77.13;93992.09;526333;28;812;-41
2023/09/18 00:04:37;;;;;;;4.07;2.00;;;;;;;18.98;77.10;93987.81;526280;28;826;-41
2023/09/18 00:04:52;;;;;;;2.70;2.03;;;;;;;18.99;77.07;93995.63;526299;28;950;-41
2023/09/18 00:05:08;;;;;;;3.00;2.33;;;;;;;18.99;77.10;93992.84;526384;28;879;-41
2023/09/18 00:05:23;;;;;;;3.73;2.20;;;;;;;18.99;76.99;93992.09;526266;28;877;-41
2023/09/18 00:05:38;;;;;;;3.55;2.10;;;;;;;18.99;76.94;93987.25;526333;28;925;-41
2023/09/18 00:05:54;;;;;;;2.90;2.20;;;;;;;18.98;76.96;93991.34;526371;28;781;-41
2023/09/18 00:06:10;;;;;;;2.53;2.10;;;;;;;18.98;77.02;93991.34;526321;28;955;-41
2023/09/18 00:06:25;;;;;;;2.22;2.03;;;;;;;18.98;76.98;93987.81;526217;28;974;-41
2023/09/18 00:06:41;;;;;;;2.33;2.13;;;;;;;18.98;77.11;93985.75;526369;28;789;-41
2023/09/18 00:06:56;;;;;;;2.57;2.00;;;;;;;18.98;77.19;93990.63;526306;28;852;-41
2023/09/18 00:07:11;;;;;;;3.00;1.93;;;;;;;18.98;77.24;93988.56;526315;28;1555;-41
2023/09/18 00:07:27;;;;;;;4.20;2.35;;;;;;;18.97;77.19;93991.97;526213;28;1043;-41
2023/09/18 00:07:43;;;;;;;3.73;2.23;;;;;;;18.98;76.99;93990.63;526355;28;797;-41
2023/09/18 00:07:58;;;;;;;2.10;1.90;;;;;;;18.98;76.73;93990.63;526347;28;853;-41
2023/09/18 00:08:14;;;;;;;2.00;1.88;;;;;;;18.99;76.68;93989.31;526301;28;817;-41
2023/09/18 00:08:31;;;;;;;2.40;2.20;;;;;;;18.98;76.67;93979.41;526284;28;908;-41
2023/09/18 00:08:48;;;;;;;2.50;2.30;;;;;;;18.98;76.73;93991.34;526308;28;919;-41
2023/09/18 00:09:03;;;;;;;2.40;2.10;;;;;;;18.98;76.75;93991.34;526239;28;1083;-41
2023/09/18 00:09:18;;;;;;;2.60;2.00;;;;;;;18.99;76.85;93992.09;526328;28;821;-41
2023/09/18 00:09:34;;;;;;;1.97;1.73;;;;;;;18.99;76.63;93995.63;526326;28;888;-41
2023/09/18 00:09:51;;;;;;;2.40;1.73;;;;;;;19.00;76.67;93990.75;526278;28;900;-41
2023/09/18 00:10:06;;;;;;;2.70;1.88;;;;;;;18.99;76.84;93995.63;526349;28;877;-41
2023/09/18 00:10:22;;;;;;;2.50;1.97;;;;;;;18.99;76.99;93992.84;526255;28;889;-40
2023/09/18 00:10:37;;;;;;;2.40;2.13;;;;;;;18.98;76.99;93991.34;526299;28;880;-41
2023/09/18 00:10:54;;;;;;;2.20;2.00;;;;;;;18.99;77.07;93987.25;526176;28;822;-41
2023/09/18 00:11:11;;;;;;;2.05;1.83;;;;;;;19.01;77.09;93992.25;526146;28;947;-41
2023/09/18 00:11:27;;;;;;;3.00;2.10;;;;;;;19.01;77.16;93989.44;526114;28;888;-41
2023/09/18 00:11:42;;;;;;;3.67;2.25;;;;;;;19.01;77.20;93990.19;526132;28;817;-41
2023/09/18 00:11:58;;;;;;;2.40;2.00;;;;;;;19.02;77.11;93991.63;526183;28;778;-41
2023/09/18 00:12:13;;;;;;;2.10;2.00;;;;;;;19.01;77.12;93992.25;526090;28;868;-41
2023/09/18 00:12:28;;;;;;;2.63;2.10;;;;;;;19.01;77.21;93987.38;527461;28;1120;-41
2023/09/18 00:12:44;;;;;;;2.70;1.90;;;;;;;19.00;77.32;93985.91;528239;28;865;-41
2023/09/18 00:12:59;;;;;;;2.10;1.73;;;;;;;19.00;77.23;93994.28;528404;28;817;-41
2023/09/18 00:13:14;;;;;;;2.63;2.10;;;;;;;18.98;77.32;93991.34;528393;27;793;-41
2023/09/18 00:13:30;;;;;;;2.77;2.30;;;;;;;18.99;77.40;93987.25;528416;28;840;-41
2023/09/18 00:13:45;;;;;;;2.50;2.30;;;;;;;19.00;77.32;93988.69;528404;28;773;-41
2023/09/18 00:14:00;;;;;;;2.30;2.10;;;;;;;19.00;77.36;93991.50;528373;28;876;-41
2023/09/18 00:14:16;;;;;;;2.30;2.10;;;;;;;19.00;77.33;93994.28;528366;28;1689;-41
2023/09/18 00:14:31;;;;;;;2.57;2.27;;;;;;;19.00;77.47;93990.75;528433;28;1027;-41
2023/09/18 00:14:50;;;;;;;2.20;2.00;;;;;;;19.00;77.40;93988.69;528419;28;796;-41
2023/09/18 00:15:08;;;;;;;2.03;1.92;;;;;;;19.00;77.41;93994.28;528391;28;804;-41
2023/09/18 00:15:24;;;;;;;2.45;2.25;;;;;;;18.97;77.29;93984.31;528376;28;924;-41
2023/09/18 00:15:40;;;;;;;2.20;2.00;;;;;;;19.01;77.28;93990.19;528437;28;828;-41
2023/09/18 00:15:59;;;;;;;2.20;1.77;;;;;;;18.95;77.03;93981.34;528364;28;943;-41
2023/09/18 00:16:14;;;;;;;3.33;2.13;;;;;;;19.01;77.16;93984.59;528363;28;813;-41
2023/09/18 00:16:30;;;;;;;2.87;2.33;;;;;;;19.01;77.05;93986.66;528433;28;864;-41
2023/09/18 00:16:45;;;;;;;2.65;2.45;;;;;;;19.01;77.06;93992.97;528387;28;907;-41
2023/09/18 00:17:00;;;;;;;3.03;2.40;;;;;;;19.01;77.08;93986.66;528420;28;829;-41
2023/09/18 00:17:19;;;;;;;3.47;2.43;;;;;;;19.02;77.18;93990.91;528395;28;824;-41
2023/09/18 00:17:35;;;;;;;2.47;2.28;;;;;;;19.02;77.13;93988.09;528279;28;911;-41
2023/09/18 00:17:50;;;;;;;3.30;2.60;;;;;;;19.01;77.35;93990.19;528475;27;936;-41
2023/09/18 00:18:06;;;;;;;3.33;2.75;;;;;;;18.92;77.34;93974.13;528077;28;2632;-41
2023/09/18 00:18:22;;;;;;;2.83;2.50;;;;;;;19.03;77.49;93987.53;528246;28;1118;-41
2023/09/18 00:18:37;;;;;;;2.70;2.35;;;;;;;19.05;77.49;93984.88;528219;28;1070;-41
2023/09/18 00:18:53;;;;;;;3.87;2.37;;;;;;;19.05;77.41;93989.72;528234;28;816;-41
2023/09/18 00:19:08;;;;;;;4.53;2.40;;;;;;;19.05;77.59;93984.88;528205;28;1148;-41
2023/09/18 00:19:24;;;;;;;3.13;2.20;;;;;;;19.05;77.46;93981.34;528116;28;853;-41
2023/09/18 00:19:39;;;;;;;2.30;2.10;;;;;;;19.06;77.60;93991.22;528225;28;863;-41
2023/09/18 00:19:54;;;;;;;2.50;1.90;;;;;;;19.06;77.54;93980.72;528253;28;770;-41
2023/09/18 00:20:10;;;;;;;3.10;1.93;;;;;;;19.06;77.59;93986.31;528344;28;1157;-41
2023/09/18 00:20:26;;;;;;;2.72;2.10;;;;;;;19.07;77.65;93984.28;528381;28;773;-41
2023/09/18 00:20:43;;;;;;;2.58;2.10;;;;;;;19.08;77.49;93988.56;528397;28;860;-41
2023/09/18 00:20:58;;;;;;;2.45;1.95;;;;;;;19.08;77.55;93988.56;528133;28;1972;-41
2023/09/18 00:21:14;;;;;;;2.60;2.13;;;;;;;19.09;77.50;93987.22;528027;28;1026;-41
2023/09/18 00:21:30;;;;;;;2.30;2.10;;;;;;;19.09;77.38;93993.56;526118;28;897;-41
2023/09/18 00:21:45;;;;;;;2.05;1.90;;;;;;;19.10;77.50;93986.63;523982;28;915;-41
2023/09/18 00:22:01;;;;;;;2.43;1.97;;;;;;;19.11;77.35;93990.91;524061;28;904;-41
2023/09/18 00:22:17;;;;;;;2.87;2.13;;;;;;;19.11;77.29;93988.09;523936;28;1124;-41
2023/09/18 00:22:33;;;;;;;2.53;2.10;;;;;;;19.10;77.16;93989.41;523997;28;786;-41
2023/09/18 00:22:48;;;;;;;3.13;2.03;;;;;;;19.10;77.10;93994.28;524634;28;916;-41
2023/09/18 00:23:04;;;;;;;2.80;2.15;;;;;;;19.09;77.04;93993.56;526044;28;921;-41
2023/09/18 00:23:20;;;;;;;2.15;1.95;;;;;;;19.08;76.96;93994.88;526839;28;848;-41
2023/09/18 00:23:36;;;;;;;2.20;2.00;;;;;;;19.08;76.94;93989.28;528168;28;888;-41
2023/09/18 00:23:52;;;;;;;2.47;2.10;;;;;;;19.08;76.97;93991.34;528363;28;903;-41
2023/09/18 00:24:08;;;;;;;2.78;1.98;;;;;;;19.07;76.80;93989.88;528414;28;829;-41
2023/09/18 00:24:25;;;;;;;3.25;1.98;;;;;;;19.05;76.39;93987.66;528274;28;988;-41
2023/09/18 00:24:40;;;;;;;2.67;1.83;;;;;;;19.04;76.27;93988.97;528364;28;947;-41
2023/09/18 00:24:55;;;;;;;3.37;2.10;;;;;;;19.03;76.21;93992.38;528341;28;888;-41
2023/09/18 00:25:11;;;;;;;3.77;2.23;;;;;;;19.01;76.23;93992.97;528363;27;781;-41
2023/09/18 00:25:26;;;;;;;2.40;1.92;;;;;;;19.00;76.17;93987.97;528389;28;805;-41
2023/09/18 00:25:42;;;;;;;2.13;1.80;;;;;;;18.99;76.06;93989.31;528373;28;1140;-41
2023/09/18 00:25:57;;;;;;;2.05;1.85;;;;;;;18.97;76.11;93989.16;528346;28;813;-41
2023/09/18 00:26:13;;;;;;;2.07;1.83;;;;;;;18.96;76.24;93988.41;528339;28;1543;-41
2023/09/18 00:26:28;;;;;;;2.03;1.63;;;;;;;18.96;76.45;93987.66;527968;28;986;-41
2023/09/18 00:26:45;;;;;;;1.87;1.70;;;;;;;18.95;76.50;93992.53;528294;28;930;-41
2023/09/18 00:27:01;;;;;;;2.20;2.00;;;;;;;18.95;76.70;93989.72;528104;28;1622;-41
2023/09/18 00:27:16;;;;;;;2.13;1.98;;;;;;;18.95;76.82;93991.81;526258;28;825;-41
2023/09/18 00:27:32;;;;;;;2.00;1.90;;;;;;;18.95;76.84;93992.53;526252;28;787;-41
2023/09/18 00:27:48;;;;;;;1.90;1.80;;;;;;;18.96;76.81;93990.47;526112;28;1343;-41
2023/09/18 00:28:04;;;;;;;1.90;1.80;;;;;;;18.96;77.02;93991.22;526295;28;824;-41
2023/09/18 00:28:19;;;;;;;2.00;1.90;;;;;;;18.96;76.94;93988.41;526245;28;801;-41
2023/09/18 00:28:35;;;;;;;3.60;2.07;;;;;;;18.97;77.00;93986.34;526216;28;876;-41
2023/09/18 00:28:50;;;;;;;4.50;2.43;;;;;;;18.97;77.09;93989.16;526346;28;833;-41
2023/09/18 00:29:05;;;;;;;2.55;2.30;;;;;;;18.96;77.11;93984.88;526172;28;868;-41
2023/09/18 00:29:21;;;;;;;2.87;1.93;;;;;;;18.96;77.14;93988.41;526276;28;817;-41
2023/09/18 00:29:36;;;;;;;2.63;1.70;;;;;;;18.96;76.98;93985.63;526243;28;867;-41
2023/09/18 00:29:52;;;;;;;2.60;2.00;;;;;;;18.96;76.94;93982.06;526326;28;852;-41
2023/09/18 00:30:07;;;;;;;3.30;2.20;;;;;;;18.96;76.91;93979.28;527013;28;1129;-41
2023/09/18 00:30:22;;;;;;;3.65;2.00;;;;;;;18.96;76.53;93984.88;528104;28;814;-41
2023/09/18 00:30:43;;;;;;;3.20;2.10;;;;;;;18.92;76.39;93980.47;528196;28;928;-41
2023/09/18 00:30:58;;;;;;;2.20;1.90;;;;;;;18.94;76.35;93985.47;528117;28;1077;-41
2023/09/18 00:31:13;;;;;;;2.20;1.90;;;;;;;18.93;76.37;93978.41;528119;28;1215;-41
2023/09/18 00:31:29;;;;;;;2.03;1.77;;;;;;;18.92;76.42;93985.34;528210;28;919;-41
2023/09/18 00:31:44;;;;;;;2.13;1.87;;;;;;;18.90;76.42;93980.34;528170;28;826;-41
2023/09/18 00:31:59;;;;;;;2.43;2.03;;;;;;;18.90;76.51;93976.78;528223;28;1572;-41
2023/09/18 00:32:15;;;;;;;2.15;1.88;;;;;;;18.90;76.53;93982.38;528215;28;852;-41
2023/09/18 00:32:30;;;;;;;2.07;1.73;;;;;;;18.89;76.68;93980.91;528370;27;884;-41
2023/09/18 00:32:46;;;;;;;3.33;1.83;;;;;;;18.91;76.66;93981.06;528213;28;863;-41
2023/09/18 00:33:02;;;;;;;3.35;2.00;;;;;;;18.90;76.79;93980.34;528312;28;1212;-41
2023/09/18 00:33:19;;;;;;;2.60;1.87;;;;;;;18.82;76.85;93967.81;528360;28;767;-41
2023/09/18 00:33:34;;;;;;;2.25;1.88;;;;;;;18.92;76.88;93982.53;528276;27;877;-41
2023/09/18 00:33:50;;;;;;;3.10;2.10;;;;;;;18.93;77.04;93978.41;528259;28;2435;-41
2023/09/18 00:34:05;;;;;;;4.17;2.47;;;;;;;18.84;76.95;93970.78;528196;28;824;-41
2023/09/18 00:34:20;;;;;;;3.90;2.35;;;;;;;18.93;77.12;93981.19;528225;28;765;-41
2023/09/18 00:34:36;;;;;;;3.40;1.97;;;;;;;18.93;77.31;93984.00;528128;28;960;-41
2023/09/18 00:34:51;;;;;;;2.50;1.83;;;;;;;18.93;77.32;93986.78;528198;28;880;-40
2023/09/18 00:35:07;;;;;;;2.35;2.10;;;;;;;18.94;77.46;93979.88;528218;28;797;-41
2023/09/18 00:35:23;;;;;;;2.27;2.07;;;;;;;18.95;77.41;93972.22;528195;28;844;-41
2023/09/18 00:35:39;;;;;;;2.10;1.90;;;;;;;18.95;77.39;93972.94;528152;28;1049;-41
2023/09/18 00:35:54;;;;;;;2.07;1.87;;;;;;;18.95;77.50;93981.34;526654;28;1108;-41
2023/09/18 00:36:10;;;;;;;2.17;1.98;;;;;;;18.98;77.58;93973.81;526143;28;829;-41
2023/09/18 00:36:25;;;;;;;2.15;2.00;;;;;;;18.95;77.15;93972.94;525995;28;829;-41
2023/09/18 00:36:41;;;;;;;2.20;2.00;;;;;;;18.83;76.83;93956.03;526060;28;876;-41
2023/09/18 00:36:56;;;;;;;2.50;2.00;;;;;;;18.95;76.93;93975.75;526045;28;856;-41
2023/09/18 00:37:12;;;;;;;2.72;2.00;;;;;;;18.96;76.91;93973.69;526105;28;864;-41
2023/09/18 00:37:28;;;;;;;2.90;2.07;;;;;;;18.97;77.08;93978.72;526000;28;920;-41
2023/09/18 00:37:44;;;;;;;2.72;2.25;;;;;;;18.96;77.20;93971.63;525924;28;932;-41
2023/09/18 00:38:03;;;;;;;3.80;2.30;;;;;;;18.95;77.18;93975.75;526191;28;809;-41
2023/09/18 00:38:19;;;;;;;3.33;2.20;;;;;;;18.93;77.24;93978.41;526182;28;900;-41
2023/09/18 00:38:34;;;;;;;2.83;2.10;;;;;;;18.93;77.39;93973.53;526176;28;1538;-41
2023/09/18 00:38:50;;;;;;;2.22;1.88;;;;;;;18.93;77.47;93979.13;526333;28;785;-41
2023/09/18 00:39:05;;;;;;;3.10;1.70;;;;;;;18.93;77.48;93976.34;526200;28;817;-41
2023/09/18 00:39:20;;;;;;;2.93;1.67;;;;;;;18.94;77.66;93979.88;526057;28;849;-41
2023/09/18 00:39:36;;;;;;;1.92;1.63;;;;;;;18.95;77.70;93978.53;526055;28;880;-41
2023/09/18 00:39:51;;;;;;;2.08;1.80;;;;;;;18.95;77.82;93975.75;526090;28;773;-41
2023/09/18 00:40:07;;;;;;;2.00;1.87;;;;;;;18.95;77.85;93978.53;526039;28;896;-41
2023/09/18 00:40:22;;;;;;;2.45;1.80;;;;;;;18.95;78.05;93981.34;526026;28;833;-41
2023/09/18 00:40:38;;;;;;;3.00;2.00;;;;;;;18.96;78.08;93980.03;525971;28;972;-41
2023/09/18 00:40:53;;;;;;;3.20;2.00;;;;;;;18.98;77.98;93976.63;525993;28;1982;-41
2023/09/18 00:41:08;;;;;;;3.13;1.97;;;;;;;18.96;77.95;93977.22;526147;28;864;-41
2023/09/18 00:41:24;;;;;;;3.03;2.10;;;;;;;18.98;78.02;93974.56;526179;28;793;-41
2023/09/18 00:41:40;;;;;;;3.00;2.13;;;;;;;18.99;77.98;93981.66;526310;28;777;-41
2023/09/18 00:41:56;;;;;;;2.58;2.10;;;;;;;19.00;77.89;93982.38;526235;28;876;-41
2023/09/18 00:42:13;;;;;;;2.28;2.08;;;;;;;19.00;77.82;93982.38;526198;28;931;-41
2023/09/18 00:42:29;;;;;;;2.33;2.13;;;;;;;19.00;77.20;93985.16;526243;28;959;-41
2023/09/18 00:42:44;;;;;;;2.23;2.03;;;;;;;18.99;77.21;93980.91;526174;28;857;-41
2023/09/18 00:42:59;;;;;;;2.35;2.15;;;;;;;18.99;77.04;93980.91;526257;28;777;-41
2023/09/18 00:43:15;;;;;;;2.93;2.10;;;;;;;18.99;76.97;93978.84;526138;28;1088;-41
2023/09/18 00:43:30;;;;;;;3.13;2.00;;;;;;;19.00;76.85;93976.75;526217;28;1065;-41
2023/09/18 00:43:45;;;;;;;2.10;1.90;;;;;;;19.00;76.58;93982.38;526193;28;861;-41
2023/09/18 00:44:01;;;;;;;2.03;1.88;;;;;;;18.97;76.81;93975.16;526273;28;820;-41
2023/09/18 00:44:16;;;;;;;1.87;1.67;;;;;;;18.96;76.46;93982.81;526252;28;778;-41
2023/09/18 00:44:31;;;;;;;1.80;1.50;;;;;;;18.95;76.21;93975.75;526189;28;948;-40
2023/09/18 00:44:47;;;;;;;2.85;1.80;;;;;;;18.95;76.10;93981.34;526184;28;864;-40
2023/09/18 00:45:02;;;;;;;2.43;1.80;;;;;;;18.94;76.03;93985.47;526254;28;942;-41
2023/09/18 00:45:18;;;;;;;1.85;1.75;;;;;;;18.92;76.18;93980.47;526166;28;796;-41
2023/09/18 00:45:34;;;;;;;2.20;2.00;;;;;;;18.91;76.23;93976.19;526221;28;899;-41
2023/09/18 00:45:49;;;;;;;2.40;2.03;;;;;;;18.91;76.22;93984.59;526186;28;853;-40
2023/09/18 00:46:04;;;;;;;2.10;1.80;;;;;;;18.90;76.42;93979.59;526161;28;813;-41
2023/09/18 00:46:21;;;;;;;2.17;1.98;;;;;;;18.91;76.66;93981.06;526266;28;856;-41
2023/09/18 00:46:36;;;;;;;2.30;2.08;;;;;;;18.89;76.68;93975.31;525984;28;869;-41
2023/09/18 00:46:52;;;;;;;2.13;1.93;;;;;;;18.89;76.71;93983.72;526084;28;1627;-41
2023/09/18 00:47:11;;;;;;;2.00;1.80;;;;;;;18.82;76.90;93976.94;523928;28;817;-41
2023/09/18 00:47:26;;;;;;;1.88;1.77;;;;;;;18.77;77.14;93982.84;521776;28;1217;-41
2023/09/18 00:47:41;;;;;;;2.10;1.90;;;;;;;18.74;77.34;93978.41;521931;28;853;-40
2023/09/18 00:47:57;;;;;;;2.17;1.80;;;;;;;18.76;77.51;93981.34;521900;28;814;-41
2023/09/18 00:48:14;;;;;;;1.83;1.57;;;;;;;18.76;77.67;93982.09;521637;28;916;-41
2023/09/18 00:48:29;;;;;;;2.08;1.88;;;;;;;18.76;77.78;93982.09;523017;28;845;-41
2023/09/18 00:48:46;;;;;;;2.87;2.13;;;;;;;18.78;77.88;93978.72;523931;28;817;-41
2023/09/18 00:49:02;;;;;;;2.95;2.08;;;;;;;18.79;78.01;93983.00;523171;28;830;-41
2023/09/18 00:49:18;;;;;;;2.42;2.10;;;;;;;18.80;78.15;93981.66;524645;28;955;-41
2023/09/18 00:49:35;;;;;;;2.40;2.20;;;;;;;18.81;78.15;93975.47;523924;28;1753;-41
2023/09/18 00:49:51;;;;;;;2.30;2.00;;;;;;;18.82;78.17;93979.00;523959;28;870;-41
2023/09/18 00:50:08;;;;;;;2.92;2.00;;;;;;;18.82;77.69;93979.72;523979;28;810;-41
2023/09/18 00:50:24;;;;;;;2.25;2.00;;;;;;;18.83;77.34;93983.28;521788;28;930;-41
2023/09/18 00:50:40;;;;;;;2.10;1.92;;;;;;;18.83;77.33;93983.28;521975;28;904;-41
2023/09/18 00:50:56;;;;;;;3.08;1.90;;;;;;;18.83;77.28;93981.22;522994;28;1093;-41
2023/09/18 00:51:11;;;;;;;3.33;2.00;;;;;;;18.85;77.20;93977.81;523995;28;782;-40
2023/09/18 00:51:27;;;;;;;2.03;1.80;;;;;;;18.85;77.13;93984.16;522831;28;829;-41
2023/09/18 00:51:42;;;;;;;1.87;1.67;;;;;;;18.86;77.07;93982.09;521917;28;952;-41
2023/09/18 00:51:57;;;;;;;2.42;1.90;;;;;;;18.86;77.08;93982.09;519858;28;854;-41
2023/09/18 00:52:14;;;;;;;3.23;2.10;;;;;;;18.87;76.90;93983.56;519806;28;1035;-40
2023/09/18 00:52:29;;;;;;;2.80;1.95;;;;;;;18.89;77.01;93986.50;519895;28;929;-41
2023/09/18 00:52:45;;;;;;;2.92;1.90;;;;;;;18.89;76.92;93989.31;520326;28;1124;-41
2023/09/18 00:53:01;;;;;;;2.67;1.87;;;;;;;18.90;77.03;93982.38;519819;28;853;-41
2023/09/18 00:53:20;;;;;;;2.15;1.73;;;;;;;18.89;76.95;93978.84;518218;28;1018;-41
2023/09/18 00:53:37;;;;;;;2.47;1.63;;;;;;;18.90;76.97;93979.59;518666;28;901;-41
2023/09/18 00:53:52;;;;;;;2.17;1.67;;;;;;;18.92;76.99;93985.34;519885;28;809;-41
2023/09/18 00:54:09;;;;;;;2.90;2.10;;;;;;;18.83;77.09;93966.50;519823;28;1576;-41
2023/09/18 00:54:24;;;;;;;3.70;2.40;;;;;;;18.93;77.07;93984.00;520953;28;1145;-41
2023/09/18 00:54:41;;;;;;;2.43;2.00;;;;;;;18.93;77.09;93984.72;519836;28;869;-41
2023/09/18 00:54:56;;;;;;;2.08;1.85;;;;;;;18.95;77.04;93986.94;521120;28;874;-41
2023/09/18 00:55:12;;;;;;;5.00;2.07;;;;;;;18.96;77.03;93988.41;523130;28;1163;-41
2023/09/18 00:55:28;;;;;;;4.85;1.90;;;;;;;18.96;76.95;93982.81;524838;28;913;-41
2023/09/18 00:55:44;;;;;;;2.03;1.83;;;;;;;18.97;77.16;93989.16;523855;28;1115;-41
2023/09/18 00:56:00;;;;;;;2.20;2.00;;;;;;;18.96;77.16;93985.63;524030;28;767;-41
2023/09/18 00:56:16;;;;;;;2.50;2.30;;;;;;;18.98;77.29;93990.63;523850;28;1028;-41
2023/09/18 00:56:33;;;;;;;2.40;2.20;;;;;;;18.97;77.11;93984.31;521934;28;842;-41
2023/09/18 00:56:48;;;;;;;2.10;1.70;;;;;;;18.97;76.97;93987.09;521917;28;794;-41
2023/09/18 00:57:04;;;;;;;2.45;1.90;;;;;;;18.97;76.80;93981.50;522757;28;901;-41
2023/09/18 00:57:20;;;;;;;2.60;2.05;;;;;;;18.98;77.03;93985.00;523917;28;1023;-41
2023/09/18 00:57:35;;;;;;;2.67;2.13;;;;;;;18.98;77.02;93980.16;522617;28;1624;-41
2023/09/18 00:57:51;;;;;;;4.37;2.20;;;;;;;18.99;77.04;93978.09;521811;28;1783;-41
2023/09/18 00:58:07;;;;;;;5.60;2.10;;;;;;;18.99;77.01;93986.50;521893;28;861;-41
2023/09/18 00:58:22;;;;;;;4.05;2.10;;;;;;;19.00;77.30;93985.91;522517;28;904;-41
2023/09/18 00:58:38;;;;;;;3.33;1.97;;;;;;;19.00;77.09;93987.97;521895;28;884;-41
2023/09/18 00:58:54;;;;;;;2.28;1.73;;;;;;;19.00;77.24;93985.91;521803;28;853;-41
2023/09/18 00:59:09;;;;;;;2.00;1.70;;;;;;;19.00;77.14;93983.09;521855;28;935;-41
2023/09/18 00:59:25;;;;;;;1.70;1.60;;;;;;;19.01;77.03;93984.59;519778;28;782;-40
2023/09/18 00:59:40;;;;;;;1.93;1.73;;;;;;;19.02;77.23;93982.50;520300;28;863;-41
2023/09/18 00:59:56;;;;;;;2.55;1.77;;;;;;;19.02;77.14;93983.25;522273;28;936;-41
2023/09/18 01:00:17;;;;;;;2.60;1.80;;;;;;;19.03;77.05;93981.19;523890;28;973;-40
2023/09/18 01:00:32;;;;;;;1.80;1.70;;;;;;;18.94;77.05;93971.47;525160;28;937;-41
2023/09/18 01:00:50;;;;;;;1.90;1.80;;;;;;;19.03;77.18;93986.78;523880;28;1148;-41
2023/09/18 01:01:06;;;;;;;1.70;1.60;;;;;;;19.04;77.28;93985.44;523819;28;952;-41
2023/09/18 01:01:22;;;;;;;1.80;1.70;;;;;;;18.98;77.31;93977.38;525356;28;908;-41
2023/09/18 01:01:39;;;;;;;2.13;1.83;;;;;;;18.97;77.36;93975.16;526004;28;897;-41
2023/09/18 01:01:54;;;;;;;2.08;1.83;;;;;;;18.91;77.20;93967.06;526017;28;880;-41
2023/09/18 01:02:10;;;;;;;1.95;1.75;;;;;;;19.06;77.16;93983.53;523938;28;1017;-41
2023/09/18 01:02:26;;;;;;;2.73;1.90;;;;;;;19.06;77.09;93980.72;523928;28;786;-41
2023/09/18 01:02:41;;;;;;;2.70;1.88;;;;;;;19.08;76.83;93989.28;525040;28;889;-40
2023/09/18 01:02:57;;;;;;;1.92;1.75;;;;;;;19.10;76.62;93983.09;523890;28;853;-41
2023/09/18 01:03:12;;;;;;;2.47;1.80;;;;;;;19.09;76.72;93985.16;523958;28;837;-41
2023/09/18 01:03:28;;;;;;;2.13;1.63;;;;;;;19.09;76.73;93985.16;521834;28;970;-41
2023/09/18 01:03:43;;;;;;;1.85;1.73;;;;;;;19.10;76.48;93992.22;521889;28;806;-41
2023/09/18 01:03:59;;;;;;;2.00;1.73;;;;;;;19.10;76.48;93992.22;520146;28;924;-40
2023/09/18 01:04:16;;;;;;;2.67;1.77;;;;;;;19.08;76.46;93977.34;521821;28;809;-41
2023/09/18 01:04:33;;;;;;;2.55;1.83;;;;;;;19.12;76.43;93991.63;521898;28;869;-40
2023/09/18 01:04:49;;;;;;;2.15;1.85;;;;;;;19.13;76.38;93985.44;522638;28;904;-41
2023/09/18 01:05:05;;;;;;;2.28;1.90;;;;;;;19.13;76.11;93991.03;523903;28;865;-41
2023/09/18 01:05:20;;;;;;;2.57;1.90;;;;;;;19.13;75.99;93993.09;522660;28;1169;-41
2023/09/18 01:05:35;;;;;;;3.58;2.10;;;;;;;19.14;76.04;93989.72;523869;28;861;-40
2023/09/18 01:05:51;;;;;;;2.63;1.90;;;;;;;19.11;75.75;93990.91;524883;28;959;-41
2023/09/18 01:06:06;;;;;;;1.95;1.63;;;;;;;19.15;75.67;93991.19;526061;28;825;-41
2023/09/18 01:06:24;;;;;;;2.10;1.83;;;;;;;19.10;75.70;93980.31;526020;28;939;-41
2023/09/18 01:06:40;;;;;;;2.50;2.20;;;;;;;19.16;75.66;93989.88;525936;28;1730;-41
2023/09/18 01:06:57;;;;;;;3.13;2.03;;;;;;;19.15;75.49;93984.84;526013;28;880;-41
2023/09/18 01:07:13;;;;;;;2.38;1.73;;;;;;;19.15;75.61;93993.22;526085;28;884;-40
2023/09/18 01:07:28;;;;;;;1.80;1.70;;;;;;;19.15;75.75;93990.44;525954;28;912;-41
2023/09/18 01:07:44;;;;;;;1.90;1.80;;;;;;;19.16;75.80;93994.72;526026;28;802;-41
2023/09/18 01:07:59;;;;;;;2.20;2.00;;;;;;;19.16;76.08;93991.91;525976;28;1606;-40
2023/09/18 01:08:15;;;;;;;2.20;2.00;;;;;;;19.16;76.16;93989.88;525956;28;1038;-41
2023/09/18 01:08:30;;;;;;;2.03;1.87;;;;;;;19.15;76.11;93988.38;526069;28;878;-41
2023/09/18 01:08:49;;;;;;;2.20;2.00;;;;;;;19.16;76.28;93989.13;526015;28;853;-41
2023/09/18 01:09:12;;;;;;;2.35;1.88;;;;;;;19.17;76.30;93988.53;525972;28;964;-41
2023/09/18 01:09:27;;;;;;;3.42;2.00;;;;;;;19.17;75.88;93994.13;526085;28;920;-41
2023/09/18 01:09:45;;;;;;;3.03;1.80;;;;;;;19.17;75.81;93991.31;526147;28;897;-40
2023/09/18 01:10:00;;;;;;;2.28;1.80;;;;;;;19.17;75.36;93987.78;526239;28;1097;-41
2023/09/18 01:10:16;;;;;;;2.13;1.98;;;;;;;19.16;75.30;93989.88;526166;28;882;-41
2023/09/18 01:10:48;;;;;;;2.17;2.03;;;;;;;19.14;75.36;93989.72;526056;28;885;-40
2023/09/18 01:11:10;;;;;;;2.08;1.58;;;;;;;19.16;75.00;94001.06;525927;28;917;-41
2023/09/18 01:11:33;;;;;;;2.45;1.75;;;;;;;19.13;74.84;93991.03;526015;28;859;-41
2023/09/18 01:11:59;;;;;;;2.42;1.83;;;;;;;19.08;74.69;93986.47;526020;28;1037;-40
2023/09/18 01:12:17;;;;;;;5.35;2.13;;;;;;;19.13;74.79;93991.03;525908;28;891;-40
2023/09/18 01:12:45;;;;;;;4.93;2.38;;;;;;;19.13;74.82;93993.84;528077;28;1203;-41
2023/09/18 01:13:13;;;;;;;3.42;1.83;;;;;;;19.13;74.75;93993.84;528105;28;864;-41
2023/09/18 01:13:38;;;;;;;3.15;1.98;;;;;;;19.14;74.86;93988.97;528038;28;1664;-40
2023/09/18 01:14:19;;;;;;;2.67;2.13;;;;;;;19.13;75.09;93991.03;528100;28;832;-41
2023/09/18 01:14:57;;;;;;;1.70;1.60;;;;;;;19.12;75.28;93992.38;528113;28;840;-41
2023/09/18 01:15:22;;;;;;;1.97;1.70;;;;;;;19.10;75.25;93992.22;528165;28;922;-40
2023/09/18 01:15:48;;;;;;;1.88;1.60;;;;;;;19.11;75.19;93992.94;528064;28;1043;-41
2023/09/18 01:16:24;;;;;;;2.15;1.40;;;;;;;19.10;74.73;93994.28;528097;28;859;-41
2023/09/18 01:16:46;;;;;;;3.38;1.70;;;;;;;19.09;74.55;93993.56;528028;28;949;-41
2023/09/18 01:17:04;;;;;;;2.22;2.00;;;;;;;19.09;74.54;93996.34;525953;28;885;-40
2023/09/18 01:17:20;;;;;;;3.17;1.73;;;;;;;19.08;74.25;94005.34;525981;28;837;-41
2023/09/18 01:17:38;;;;;;;2.85;1.60;;;;;;;19.06;74.40;94003.13;527794;28;893;-41
2023/09/18 01:17:53;;;;;;;4.28;1.85;;;;;;;19.06;74.29;93989.13;528135;28;845;-40
2023/09/18 01:18:09;;;;;;;3.27;1.87;;;;;;;19.05;74.48;93998.88;527998;28;948;-41
2023/09/18 01:18:24;;;;;;;1.80;1.70;;;;;;;19.05;74.47;93993.28;528093;28;789;-40
2023/09/18 01:18:49;;;;;;;1.70;1.60;;;;;;;19.06;74.66;93996.81;528124;28;868;-41
2023/09/18 01:19:05;;;;;;;2.15;1.77;;;;;;;19.04;74.68;93997.38;528256;28;879;-41
2023/09/18 01:19:45;;;;;;;2.20;1.90;;;;;;;19.05;74.76;93989.72;528201;28;891;-41
2023/09/18 01:20:00;;;;;;;1.80;1.70;;;;;;;19.05;74.80;94000.91;528224;28;883;-40
2023/09/18 01:20:16;;;;;;;1.70;1.60;;;;;;;19.05;74.94;93996.06;528245;28;844;-41
2023/09/18 01:20:31;;;;;;;2.15;1.70;;;;;;;19.07;74.79;94003.88;528222;28;950;-41
2023/09/18 01:20:47;;;;;;;2.70;2.03;;;;;;;19.06;74.99;93996.81;528277;28;800;-41